Time;durP1;ratioP1;P1;durP2;ratioP2;P2;SDS_P1;SDS_P2;PMS_P1;PMS_P2;Temp;Humidity;BMP_temperature;BMP_pressure;BME280_temperature;BME280_humidity;BME280_pressure;Samples;Min_cycle;Max_cycle;Signal;HPM_P1;HPM_P2
2023/01/27 04:01:43;;;;;;;8.17;6.80;;;1.90;80.70;;;;;;5526923;23;20510;-68
2023/01/27 04:06:56;;;;;;;8.17;7.00;;;2.00;80.60;;;;;;4956154;29;20519;-69
2023/01/27 04:09:26;;;;;;;7.73;6.93;;;2.10;80.10;;;;;;4955935;29;20509;-69
2023/01/27 04:11:54;;;;;;;7.90;7.10;;;2.10;80.20;;;;;;4955067;29;21039;-69
2023/01/27 04:14:22;;;;;;;5.93;5.37;;;2.10;79.90;;;;;;4955863;29;20489;-68
2023/01/27 04:16:51;;;;;;;7.37;6.50;;;2.10;79.70;;;;;;4956379;29;20462;-68
2023/01/27 04:19:18;;;;;;;6.70;6.00;;;1.90;79.90;;;;;;4955754;29;20457;-68
2023/01/27 04:21:45;;;;;;;16.23;7.63;;;1.90;80.20;;;;;;4955657;29;20470;-69
2023/01/27 04:24:25;;;;;;;7.70;6.90;;;2.00;80.00;;;;;;4955548;29;20490;-68
2023/01/27 04:26:54;;;;;;;7.50;6.10;;;2.10;79.90;;;;;;4955721;28;20435;-68
2023/01/27 04:29:22;;;;;;;8.70;6.50;;;2.10;80.00;;;;;;4955624;29;20451;-68
2023/01/27 04:31:50;;;;;;;6.93;5.83;;;2.10;79.90;;;;;;4955432;29;20479;-66
2023/01/27 04:34:18;;;;;;;6.67;5.97;;;2.00;79.90;;;;;;4955276;29;20505;-66
2023/01/27 04:36:46;;;;;;;7.00;5.60;;;2.10;80.10;;;;;;4955530;29;20879;-66
2023/01/27 04:39:13;;;;;;;7.00;6.30;;;2.10;79.80;;;;;;4955415;29;20490;-66
2023/01/27 04:41:40;;;;;;;7.23;6.53;;;2.10;79.70;;;;;;4955315;29;20475;-68
2023/01/27 04:44:07;;;;;;;7.67;6.87;;;2.00;79.40;;;;;;4955355;29;20487;-68
2023/01/27 04:46:34;;;;;;;7.20;6.50;;;2.10;79.50;;;;;;4955345;29;20451;-68
2023/01/27 04:49:03;;;;;;;5.87;5.27;;;2.10;79.20;;;;;;4955038;29;20998;-68
2023/01/27 04:51:29;;;;;;;5.00;4.50;;;2.10;79.20;;;;;;4955311;29;20530;-69
2023/01/27 04:53:56;;;;;;;5.80;5.20;;;2.10;78.80;;;;;;4955284;29;20450;-68
2023/01/27 04:56:26;;;;;;;6.00;5.40;;;2.10;78.60;;;;;;4955064;29;20452;-68
2023/01/27 04:58:53;;;;;;;5.47;4.73;;;2.10;78.70;;;;;;4955024;29;20873;-68
2023/01/27 05:01:20;;;;;;;6.53;5.80;;;2.10;78.60;;;;;;4954774;29;20999;-68
2023/01/27 05:03:46;;;;;;;5.50;5.00;;;2.20;78.40;;;;;;4955118;29;20540;-68
2023/01/27 05:06:15;;;;;;;4.97;4.57;;;2.10;78.20;;;;;;4955173;29;20458;-68
2023/01/27 05:08:42;;;;;;;5.50;5.00;;;2.10;78.50;;;;;;4955224;29;20861;-69
2023/01/27 05:11:08;;;;;;;6.13;5.53;;;2.10;78.50;;;;;;4955131;29;20518;-69
2023/01/27 05:13:35;;;;;;;5.90;5.40;;;2.00;78.50;;;;;;4955038;29;20450;-68
2023/01/27 05:16:07;;;;;;;5.53;5.00;;;2.00;78.40;;;;;;4955120;29;20450;-68
2023/01/27 05:18:34;;;;;;;6.17;5.57;;;1.80;79.30;;;;;;4955027;29;20443;-68
2023/01/27 05:21:00;;;;;;;5.20;4.60;;;1.90;79.00;;;;;;4955060;28;20530;-68
2023/01/27 05:23:37;;;;;;;5.53;5.03;;;2.00;78.80;;;;;;4957326;29;20484;-68
2023/01/27 05:26:06;;;;;;;5.40;4.90;;;2.10;79.00;;;;;;4958925;29;20439;-68
2023/01/27 05:28:34;;;;;;;6.67;6.03;;;2.00;79.20;;;;;;4958856;29;20456;-68
2023/01/27 05:31:06;;;;;;;6.40;5.20;;;2.10;79.10;;;;;;4958801;29;20528;-69
2023/01/27 05:33:33;;;;;;;7.47;6.60;;;2.10;79.30;;;;;;4958885;29;20435;-69
2023/01/27 05:36:00;;;;;;;9.43;8.37;;;2.10;79.10;;;;;;4958711;29;20499;-68
2023/01/27 05:38:29;;;;;;;8.23;7.43;;;2.10;79.20;;;;;;4958675;29;20478;-69
2023/01/27 05:40:59;;;;;;;8.07;7.27;;;2.00;79.30;;;;;;4958343;29;21074;-68
2023/01/27 05:43:26;;;;;;;11.30;8.57;;;1.80;80.00;;;;;;4958223;29;20987;-68
2023/01/27 05:45:53;;;;;;;13.30;12.20;;;1.90;80.10;;;;;;4958268;29;20860;-68
2023/01/27 05:48:19;;;;;;;15.33;13.83;;;1.80;80.10;;;;;;4958199;29;21017;-68
2023/01/27 05:50:55;;;;;;;14.07;12.73;;;1.80;80.40;;;;;;4958160;29;20470;-69
2023/01/27 05:53:22;;;;;;;8.00;7.30;;;1.90;80.20;;;;;;4958540;29;20627;-68
2023/01/27 05:55:51;;;;;;;8.80;7.73;;;1.90;79.70;;;;;;4958441;29;20449;-68
2023/01/27 05:58:17;;;;;;;8.40;7.60;;;1.80;79.80;;;;;;4958299;29;20451;-68
2023/01/27 06:00:44;;;;;;;8.60;7.60;;;1.80;79.80;;;;;;4957882;29;21065;-68
2023/01/27 06:03:11;;;;;;;9.30;8.40;;;1.70;80.20;;;;;;4958272;29;20488;-68
2023/01/27 06:05:38;;;;;;;9.10;8.23;;;1.70;80.20;;;;;;4958258;29;20809;-68
2023/01/27 06:08:05;;;;;;;10.73;9.63;;;1.70;80.70;;;;;;4958164;29;20451;-69
2023/01/27 06:10:35;;;;;;;11.33;10.27;;;1.70;80.60;;;;;;4958221;29;20804;-70
2023/01/27 06:13:03;;;;;;;8.53;7.73;;;1.60;80.70;;;;;;4958133;29;20850;-68
2023/01/27 06:15:31;;;;;;;10.27;9.37;;;1.60;80.70;;;;;;4958027;29;20502;-68
2023/01/27 06:17:57;;;;;;;9.20;8.20;;;1.70;80.80;;;;;;4957969;29;20546;-68
2023/01/27 06:20:24;;;;;;;10.20;9.20;;;1.80;80.50;;;;;;4957826;29;20502;-69
2023/01/27 06:22:51;;;;;;;10.20;9.10;;;1.70;80.40;;;;;;4957801;29;20542;-68
2023/01/27 06:25:17;;;;;;;10.60;9.50;;;1.70;80.60;;;;;;4957802;29;20457;-67
2023/01/27 06:27:44;;;;;;;13.40;11.97;;;1.80;80.30;;;;;;4957492;29;20874;-69
2023/01/27 06:30:19;;;;;;;9.70;8.70;;;1.70;80.50;;;;;;4958062;29;20451;-68
2023/01/27 06:32:46;;;;;;;11.50;10.40;;;1.70;80.50;;;;;;4958134;28;20441;-68
2023/01/27 06:35:12;;;;;;;9.80;8.80;;;1.70;80.40;;;;;;4962690;29;20530;-68
2023/01/27 06:37:39;;;;;;;9.13;8.27;;;1.70;80.40;;;;;;4959386;29;20502;-68
2023/01/27 06:40:06;;;;;;;10.53;9.53;;;1.70;80.40;;;;;;4957831;29;20479;-68
2023/01/27 06:42:33;;;;;;;11.80;10.67;;;1.70;80.70;;;;;;4958083;29;20482;-68
2023/01/27 06:45:00;;;;;;;10.33;9.13;;;1.60;81.00;;;;;;4957161;29;20515;-69
2023/01/27 06:47:28;;;;;;;11.83;10.63;;;1.60;80.90;;;;;;4957444;29;20443;-69
2023/01/27 06:49:54;;;;;;;10.47;9.47;;;1.70;80.90;;;;;;4957510;29;20502;-69
2023/01/27 06:52:21;;;;;;;9.53;8.63;;;1.60;81.00;;;;;;4957340;29;20505;-68
2023/01/27 06:54:47;;;;;;;10.27;9.33;;;1.50;81.30;;;;;;4957366;29;20499;-68
2023/01/27 06:57:15;;;;;;;10.17;9.17;;;1.70;81.40;;;;;;4957357;29;20459;-68
2023/01/27 06:59:41;;;;;;;8.90;8.00;;;1.80;81.50;;;;;;4957454;29;20477;-69
2023/01/27 07:02:09;;;;;;;11.47;9.63;;;1.80;81.10;;;;;;4957340;29;20909;-68
2023/01/27 07:04:37;;;;;;;10.07;9.07;;;1.70;80.80;;;;;;4957173;29;20502;-69
2023/01/27 07:07:04;;;;;;;10.53;9.27;;;1.70;81.00;;;;;;4957162;29;20446;-69
2023/01/27 07:09:30;;;;;;;9.40;8.50;;;1.80;81.00;;;;;;4957126;29;20474;-69
2023/01/27 07:11:57;;;;;;;10.03;9.00;;;1.70;80.60;;;;;;4957004;29;20475;-69
2023/01/27 07:14:24;;;;;;;9.13;8.27;;;1.50;81.30;;;;;;4956795;29;20451;-69
2023/01/27 07:16:50;;;;;;;10.90;9.77;;;1.20;82.20;;;;;;4957021;29;20525;-69
2023/01/27 07:19:17;;;;;;;9.70;8.80;;;1.10;82.80;;;;;;4956515;29;20828;-69
2023/01/27 07:21:45;;;;;;;12.23;9.20;;;1.10;83.10;;;;;;4956295;29;21064;-69
2023/01/27 07:24:12;;;;;;;11.97;9.53;;;1.20;83.00;;;;;;4956604;29;20483;-68
2023/01/27 07:26:38;;;;;;;11.70;10.60;;;1.30;83.30;;;;;;4956753;28;20447;-69
2023/01/27 07:29:05;;;;;;;10.20;9.20;;;1.40;83.00;;;;;;4956525;29;20470;-69
2023/01/27 07:31:33;;;;;;;10.73;9.80;;;1.40;82.90;;;;;;4956505;29;20899;-68
2023/01/27 07:34:00;;;;;;;9.83;8.93;;;1.60;82.40;;;;;;4956483;29;20443;-69
2023/01/27 07:36:27;;;;;;;9.43;8.60;;;1.70;82.10;;;;;;4956474;29;20465;-68
2023/01/27 07:38:55;;;;;;;9.40;8.47;;;1.80;81.80;;;;;;4956415;29;20447;-69
2023/01/27 07:41:21;;;;;;;9.57;8.57;;;1.90;81.60;;;;;;4956323;29;20471;-69
2023/01/27 07:43:48;;;;;;;9.47;8.50;;;1.90;81.30;;;;;;4956205;29;20578;-68
2023/01/27 07:46:15;;;;;;;10.03;8.63;;;2.00;81.30;;;;;;4955519;28;20460;-68
2023/01/27 07:48:41;;;;;;;15.73;8.57;;;1.90;80.80;;;;;;4956263;29;20482;-69
2023/01/27 07:51:12;;;;;;;9.63;8.70;;;1.90;81.00;;;;;;4955896;29;20895;-68
2023/01/27 07:53:39;;;;;;;9.43;8.43;;;1.80;81.00;;;;;;4956213;29;20518;-68
2023/01/27 07:56:10;;;;;;;9.40;8.40;;;1.70;81.70;;;;;;4955901;29;20864;-69
2023/01/27 07:58:38;;;;;;;11.30;9.57;;;1.60;81.80;;;;;;4956158;29;20465;-68
2023/01/27 08:01:06;;;;;;;9.43;8.40;;;1.30;82.60;;;;;;4955912;29;20569;-68
2023/01/27 08:03:33;;;;;;;12.30;9.60;;;1.50;83.00;;;;;;4955955;29;20490;-70
2023/01/27 08:06:04;;;;;;;8.90;8.10;;;1.50;82.50;;;;;;4955953;29;20513;-69
2023/01/27 08:08:31;;;;;;;10.50;9.40;;;1.60;82.10;;;;;;4955952;29;20523;-68
2023/01/27 08:10:59;;;;;;;9.97;8.97;;;1.30;82.50;;;;;;4955834;29;20465;-69
2023/01/27 08:13:28;;;;;;;9.40;8.50;;;1.20;83.20;;;;;;4955859;29;20451;-68
2023/01/27 08:15:58;;;;;;;10.13;8.77;;;1.40;83.40;;;;;;4955938;29;20450;-69
2023/01/27 08:18:25;;;;;;;9.07;8.30;;;1.50;83.20;;;;;;4956140;29;20454;-69
2023/01/27 08:20:53;;;;;;;10.10;8.27;;;1.60;82.90;;;;;;4955319;29;20475;-68
2023/01/27 08:23:20;;;;;;;8.87;8.07;;;1.70;82.20;;;;;;4955704;29;20455;-69
2023/01/27 08:25:49;;;;;;;9.80;8.90;;;1.70;81.60;;;;;;4955286;29;20906;-69
2023/01/27 08:28:16;;;;;;;11.00;8.30;;;1.60;82.20;;;;;;4955566;29;20451;-69
2023/01/27 08:30:44;;;;;;;9.13;8.23;;;1.70;82.10;;;;;;4955512;29;20498;-70
2023/01/27 08:33:11;;;;;;;9.20;8.13;;;1.90;81.40;;;;;;4955115;29;20875;-68
2023/01/27 08:35:41;;;;;;;9.27;8.37;;;1.90;81.20;;;;;;4955501;29;20821;-68
2023/01/27 08:38:08;;;;;;;8.47;7.67;;;1.80;81.40;;;;;;4955420;29;20494;-69
2023/01/27 08:40:34;;;;;;;9.00;8.17;;;1.60;81.30;;;;;;4955416;29;20528;-68
2023/01/27 08:43:01;;;;;;;8.03;7.07;;;1.60;81.70;;;;;;4955067;29;21004;-69
2023/01/27 08:45:28;;;;;;;8.17;7.47;;;1.30;82.10;;;;;;4955037;29;21020;-69
2023/01/27 08:47:56;;;;;;;8.23;7.43;;;1.30;83.00;;;;;;4955145;29;20948;-68
2023/01/27 08:50:22;;;;;;;8.30;7.50;;;1.30;82.90;;;;;;4954993;29;20454;-68
2023/01/27 08:52:49;;;;;;;8.13;7.33;;;1.30;83.30;;;;;;4955183;29;20452;-69
2023/01/27 08:55:16;;;;;;;8.63;7.50;;;1.40;83.20;;;;;;4955182;29;20863;-68
2023/01/27 08:57:43;;;;;;;7.83;7.03;;;1.50;82.70;;;;;;4954951;28;20505;-68
2023/01/27 09:00:11;;;;;;;7.83;7.03;;;1.60;82.30;;;;;;4955365;29;20455;-68
2023/01/27 09:02:38;;;;;;;7.27;6.53;;;1.70;82.10;;;;;;4955096;28;20484;-68
2023/01/27 09:05:07;;;;;;;7.40;6.67;;;1.60;82.10;;;;;;4955342;29;20483;-68
2023/01/27 09:07:34;;;;;;;7.50;6.80;;;1.60;81.60;;;;;;4955391;28;20534;-70
2023/01/27 09:10:00;;;;;;;7.60;6.90;;;1.30;81.80;;;;;;4955057;29;20454;-70
2023/01/27 09:12:27;;;;;;;8.10;6.53;;;1.20;82.80;;;;;;4955856;29;20483;-69
2023/01/27 09:14:57;;;;;;;7.60;6.93;;;1.30;82.70;;;;;;4956382;29;20883;-69
2023/01/27 09:17:23;;;;;;;8.33;7.33;;;1.20;82.90;;;;;;4956205;29;20499;-70
2023/01/27 09:19:50;;;;;;;8.00;7.20;;;1.20;82.80;;;;;;4955610;29;20932;-69
2023/01/27 09:22:18;;;;;;;7.23;6.53;;;1.30;83.30;;;;;;4956714;29;20472;-69
2023/01/27 09:24:45;;;;;;;7.37;6.67;;;1.50;82.90;;;;;;4955294;29;20490;-68
2023/01/27 09:27:12;;;;;;;8.20;6.80;;;1.60;81.90;;;;;;4955772;29;20819;-69
2023/01/27 09:29:38;;;;;;;8.77;7.47;;;1.50;81.60;;;;;;4956446;29;20462;-69
2023/01/27 09:32:07;;;;;;;7.73;6.97;;;1.40;81.90;;;;;;4955704;29;20473;-69
2023/01/27 09:34:36;;;;;;;7.50;6.80;;;1.40;82.20;;;;;;4956681;29;20457;-69
2023/01/27 09:37:08;;;;;;;7.73;6.97;;;1.30;81.80;;;;;;4956342;29;20451;-69
2023/01/27 09:39:40;;;;;;;7.10;6.37;;;1.20;82.20;;;;;;4956417;29;20456;-69
2023/01/27 09:42:27;;;;;;;7.00;6.40;;;1.40;82.10;;;;;;4955574;29;20475;-68
2023/01/27 09:45:24;;;;;;;7.47;6.60;;;1.50;81.80;;;;;;4955840;29;20475;-69
2023/01/27 09:48:10;;;;;;;7.73;7.00;;;1.60;81.70;;;;;;4954119;29;20844;-69
2023/01/27 09:50:44;;;;;;;7.30;6.60;;;1.70;81.50;;;;;;4955620;29;20435;-69
2023/01/27 09:53:24;;;;;;;6.90;5.50;;;1.70;80.80;;;;;;4955549;29;20856;-70
2023/01/27 09:55:58;;;;;;;7.13;6.37;;;1.80;80.80;;;;;;4955099;29;20435;-70
2023/01/27 09:58:35;;;;;;;8.60;6.97;;;1.80;80.20;;;;;;4955547;29;20444;-70
2023/01/27 10:01:17;;;;;;;8.23;6.43;;;1.90;80.30;;;;;;4955038;29;21037;-69
2023/01/27 10:03:59;;;;;;;7.90;7.10;;;1.80;80.10;;;;;;4955621;29;20442;-68
2023/01/27 10:06:41;;;;;;;8.60;7.13;;;1.70;80.00;;;;;;4955369;29;20778;-69
2023/01/27 10:09:46;;;;;;;8.33;7.53;;;1.40;80.40;;;;;;4957292;28;20432;-69
2023/01/27 10:12:27;;;;;;;8.70;7.73;;;1.20;82.00;;;;;;4947087;29;20486;-68
2023/01/27 10:15:06;;;;;;;8.80;7.60;;;1.20;81.90;;;;;;4958618;28;20435;-70
2023/01/27 10:17:42;;;;;;;8.50;7.63;;;1.30;82.20;;;;;;4959377;29;20897;-69
2023/01/27 10:20:20;;;;;;;9.60;8.63;;;1.10;82.40;;;;;;4958514;28;20443;-68
2023/01/27 10:22:57;;;;;;;9.33;8.33;;;1.00;82.80;;;;;;4958969;29;20777;-68
2023/01/27 10:25:33;;;;;;;9.37;8.07;;;0.90;82.80;;;;;;4958628;29;20820;-69
2023/01/27 10:28:09;;;;;;;11.60;9.97;;;0.80;83.80;;;;;;4959162;29;20447;-69
2023/01/27 10:30:37;;;;;;;10.43;9.33;;;0.80;84.10;;;;;;4958389;29;20451;-68
2023/01/27 10:33:16;;;;;;;10.80;9.70;;;0.70;84.60;;;;;;4958307;29;20455;-69
2023/01/27 10:35:50;;;;;;;10.23;8.53;;;0.90;85.10;;;;;;4958228;29;20447;-68
2023/01/27 10:38:30;;;;;;;9.40;8.50;;;1.00;83.50;;;;;;4958464;29;20446;-68
2023/01/27 10:41:05;;;;;;;11.13;9.67;;;0.80;83.40;;;;;;4959146;29;20470;-70
2023/01/27 10:43:43;;;;;;;9.00;8.20;;;0.70;84.00;;;;;;4958359;29;20468;-69
2023/01/27 10:46:21;;;;;;;12.00;9.30;;;1.00;84.20;;;;;;4958515;29;20502;-69
2023/01/27 10:48:52;;;;;;;9.90;7.80;;;1.00;83.60;;;;;;4958173;29;20435;-68
2023/01/27 10:51:24;;;;;;;9.40;7.80;;;1.10;83.40;;;;;;4958037;29;20843;-69
2023/01/27 10:53:57;;;;;;;11.60;9.80;;;0.80;83.30;;;;;;4958455;29;20439;-69
2023/01/27 10:56:31;;;;;;;10.53;9.50;;;0.60;84.60;;;;;;4958134;29;20440;-68
2023/01/27 10:59:06;;;;;;;8.30;7.50;;;0.40;85.40;;;;;;4958565;29;20453;-69
2023/01/27 11:01:37;;;;;;;10.90;8.27;;;0.60;85.80;;;;;;4957764;29;20491;-69
2023/01/27 11:04:11;;;;;;;9.13;7.43;;;0.70;85.40;;;;;;4957576;29;20932;-68
2023/01/27 11:06:41;;;;;;;9.33;8.43;;;0.80;85.30;;;;;;4957676;29;20475;-68
2023/01/27 11:09:23;;;;;;;11.33;10.10;;;0.90;84.80;;;;;;4957851;29;20815;-69
2023/01/27 11:11:51;;;;;;;9.33;8.13;;;0.90;84.40;;;;;;4957509;29;20483;-68
2023/01/27 11:14:25;;;;;;;9.03;7.80;;;0.90;84.50;;;;;;4957752;29;20832;-69
2023/01/27 11:16:53;;;;;;;8.00;6.77;;;0.80;83.90;;;;;;4957746;29;20451;-69
2023/01/27 11:19:34;;;;;;;9.20;8.00;;;0.80;84.40;;;;;;4957640;28;20474;-69
2023/01/27 11:22:04;;;;;;;9.10;8.00;;;1.10;84.30;;;;;;4957713;29;20475;-73
2023/01/27 11:24:43;;;;;;;10.67;8.43;;;1.20;83.00;;;;;;4957436;29;20477;-69
2023/01/27 11:27:20;;;;;;;10.77;7.90;;;1.20;83.40;;;;;;4957427;29;20444;-68
2023/01/27 11:29:53;;;;;;;7.73;6.90;;;1.30;83.00;;;;;;4957771;29;20438;-69
2023/01/27 11:32:38;;;;;;;9.20;7.93;;;1.10;82.70;;;;;;4957249;29;20483;-68
2023/01/27 11:35:08;;;;;;;7.27;6.57;;;0.90;83.60;;;;;;4957403;29;20927;-69
2023/01/27 11:37:38;;;;;;;8.43;7.53;;;1.00;84.10;;;;;;4956864;29;20913;-67
2023/01/27 11:40:14;;;;;;;9.23;8.23;;;0.90;83.50;;;;;;4956764;29;20470;-70
2023/01/27 11:42:43;;;;;;;9.13;8.23;;;0.80;84.10;;;;;;4957507;29;20478;-68
2023/01/27 11:45:15;;;;;;;8.67;7.60;;;0.90;84.50;;;;;;4957283;29;20487;-70
2023/01/27 11:47:44;;;;;;;8.50;7.50;;;1.10;83.90;;;;;;4957432;29;20791;-74
2023/01/27 11:50:15;;;;;;;8.90;7.70;;;1.10;83.50;;;;;;4956688;29;20526;-69
2023/01/27 11:52:43;;;;;;;8.40;6.90;;;1.10;83.50;;;;;;4957484;29;21008;-70
2023/01/27 11:55:16;;;;;;;9.87;7.47;;;1.10;84.00;;;;;;4956656;29;20463;-68
2023/01/27 11:57:46;;;;;;;8.47;7.57;;;1.20;83.70;;;;;;4955967;29;20443;-70
2023/01/27 12:00:22;;;;;;;9.53;8.20;;;1.20;83.40;;;;;;4956066;29;20878;-68
2023/01/27 12:02:54;;;;;;;9.37;7.40;;;1.00;83.10;;;;;;4956136;28;20471;-68
2023/01/27 12:05:29;;;;;;;8.97;7.70;;;1.10;83.90;;;;;;4956380;28;20471;-69
2023/01/27 12:07:58;;;;;;;6.73;6.03;;;1.20;83.80;;;;;;4956661;29;20459;-73
2023/01/27 12:10:29;;;;;;;8.37;7.13;;;1.30;83.20;;;;;;4957098;28;20787;-68
2023/01/27 12:12:57;;;;;;;8.10;7.27;;;1.20;83.20;;;;;;4956416;29;20471;-68
2023/01/27 12:15:27;;;;;;;10.13;9.07;;;1.30;83.10;;;;;;4956321;29;20456;-69
2023/01/27 12:17:57;;;;;;;7.57;6.63;;;1.50;83.20;;;;;;4957329;28;20441;-70
2023/01/27 12:20:30;;;;;;;8.77;6.93;;;1.60;82.30;;;;;;4956813;29;20451;-68
2023/01/27 12:23:01;;;;;;;7.90;7.20;;;1.60;81.70;;;;;;4956334;29;20439;-69
2023/01/27 12:25:32;;;;;;;7.77;7.07;;;1.20;82.10;;;;;;4957669;29;20825;-69
2023/01/27 12:28:01;;;;;;;6.90;6.20;;;1.10;82.40;;;;;;4956426;29;20605;-68
2023/01/27 12:30:32;;;;;;;6.90;6.10;;;1.30;83.00;;;;;;4956804;29;20465;-69
2023/01/27 12:33:00;;;;;;;6.43;5.83;;;1.60;82.40;;;;;;4956484;29;20449;-70
2023/01/27 12:35:33;;;;;;;7.40;6.50;;;1.60;81.90;;;;;;4956651;29;20956;-68
2023/01/27 12:38:05;;;;;;;7.47;6.70;;;1.60;81.80;;;;;;4960712;29;20819;-69
2023/01/27 12:40:33;;;;;;;7.63;6.83;;;1.50;81.40;;;;;;4957172;29;20470;-68
2023/01/27 12:43:10;;;;;;;9.20;7.73;;;1.60;81.80;;;;;;4955353;29;20490;-68
2023/01/27 12:45:39;;;;;;;7.07;6.03;;;1.80;81.00;;;;;;4955365;29;20884;-68
2023/01/27 12:48:18;;;;;;;8.23;6.23;;;1.90;80.50;;;;;;4955297;29;20447;-68
2023/01/27 12:50:55;;;;;;;6.70;6.00;;;1.80;80.70;;;;;;4955298;29;20618;-68
2023/01/27 12:53:22;;;;;;;7.67;6.53;;;1.80;80.90;;;;;;4955322;29;20498;-70
2023/01/27 12:55:52;;;;;;;7.03;5.80;;;1.80;80.80;;;;;;4955757;29;20970;-69
2023/01/27 12:58:34;;;;;;;7.53;6.77;;;1.80;80.80;;;;;;4955510;29;20446;-70
2023/01/27 13:01:06;;;;;;;8.97;6.93;;;1.80;80.80;;;;;;4952893;29;20490;-68
2023/01/27 13:03:41;;;;;;;7.23;6.17;;;1.90;80.80;;;;;;4955436;29;20439;-68
2023/01/27 13:06:09;;;;;;;7.00;6.30;;;2.00;80.80;;;;;;4955770;29;20467;-69
2023/01/27 13:08:40;;;;;;;8.30;7.10;;;2.00;80.70;;;;;;4957132;29;20454;-68
2023/01/27 13:11:07;;;;;;;8.00;5.77;;;2.10;80.60;;;;;;4955746;29;20471;-69
2023/01/27 13:13:34;;;;;;;8.43;7.60;;;2.10;80.10;;;;;;4955903;29;20456;-69
2023/01/27 13:16:08;;;;;;;7.40;5.97;;;2.10;80.60;;;;;;4956011;29;20810;-69
2023/01/27 13:18:38;;;;;;;6.30;5.70;;;2.20;80.20;;;;;;4955156;29;20435;-69
2023/01/27 13:21:14;;;;;;;7.10;6.40;;;2.10;79.80;;;;;;4954850;29;20976;-68
2023/01/27 13:23:41;;;;;;;6.73;6.03;;;2.10;80.30;;;;;;4956184;29;20474;-68
2023/01/27 13:26:15;;;;;;;6.90;6.20;;;1.80;80.10;;;;;;4955304;29;20526;-68
2023/01/27 13:28:46;;;;;;;8.33;7.43;;;2.00;80.90;;;;;;4955147;29;20440;-67
2023/01/27 13:31:21;;;;;;;8.00;7.20;;;2.10;80.50;;;;;;4955295;29;20486;-68
2023/01/27 13:33:51;;;;;;;7.77;7.00;;;2.20;80.00;;;;;;4954954;29;20439;-68
2023/01/27 13:36:28;;;;;;;7.93;6.53;;;2.20;79.50;;;;;;4955193;29;20450;-69
2023/01/27 13:39:01;;;;;;;8.97;7.53;;;2.40;79.60;;;;;;4954917;29;20852;-68
2023/01/27 13:41:34;;;;;;;9.47;7.33;;;2.40;79.30;;;;;;4955108;29;20471;-68
2023/01/27 13:44:08;;;;;;;6.47;5.77;;;2.40;79.50;;;;;;4956783;28;20493;-69
2023/01/27 13:46:38;;;;;;;8.47;7.03;;;2.40;79.40;;;;;;4958510;29;20533;-69
2023/01/27 13:49:15;;;;;;;9.17;7.43;;;2.40;79.70;;;;;;4958627;28;20505;-68
2023/01/27 13:51:42;;;;;;;6.37;5.70;;;2.20;79.50;;;;;;4958115;29;20884;-69
2023/01/27 13:54:14;;;;;;;7.60;6.00;;;2.20;80.00;;;;;;4958293;29;20475;-70
2023/01/27 13:56:53;;;;;;;10.40;7.50;;;2.40;80.20;;;;;;4959271;29;20474;-69
2023/01/27 13:59:45;;;;;;;9.40;8.07;;;2.50;79.90;;;;;;4958542;29;20845;-69
2023/01/27 14:02:57;;;;;;;7.73;6.90;;;2.50;79.40;;;;;;4958097;29;20542;-68
2023/01/27 14:05:41;;;;;;;7.73;6.97;;;2.60;79.50;;;;;;4958191;29;20439;-69
2023/01/27 14:08:20;;;;;;;8.00;7.10;;;2.60;79.20;;;;;;4958517;29;20436;-69
2023/01/27 14:11:00;;;;;;;8.57;7.77;;;2.60;79.50;;;;;;4958522;29;20530;-68
2023/01/27 14:13:37;;;;;;;8.60;7.67;;;2.50;79.60;;;;;;4958352;29;20498;-69
2023/01/27 14:16:08;;;;;;;8.73;7.83;;;2.20;80.20;;;;;;4958049;29;20442;-70
2023/01/27 14:18:41;;;;;;;9.67;8.67;;;2.30;80.40;;;;;;4957822;29;20442;-68
2023/01/27 14:21:17;;;;;;;10.37;8.17;;;2.30;80.40;;;;;;4958022;29;20529;-69
2023/01/27 14:23:52;;;;;;;10.50;9.50;;;2.20;80.70;;;;;;4958288;29;20490;-69
2023/01/27 14:26:34;;;;;;;11.73;9.27;;;2.20;81.10;;;;;;4957929;29;20480;-68
2023/01/27 14:29:10;;;;;;;10.40;9.30;;;2.20;81.10;;;;;;4957895;28;20440;-69
2023/01/27 14:31:49;;;;;;;10.83;9.70;;;2.10;80.70;;;;;;4957656;29;20471;-69
2023/01/27 14:34:32;;;;;;;9.70;8.43;;;2.00;81.20;;;;;;4957667;29;20495;-68
2023/01/27 14:37:09;;;;;;;9.50;8.30;;;2.00;81.40;;;;;;4957762;29;20826;-69
2023/01/27 14:39:43;;;;;;;9.00;8.10;;;2.10;81.50;;;;;;4957654;29;20444;-68
2023/01/27 14:42:16;;;;;;;9.37;8.47;;;2.20;81.50;;;;;;4957216;29;20569;-69
2023/01/27 14:44:53;;;;;;;10.13;8.03;;;2.30;81.00;;;;;;4957208;29;20972;-68
2023/01/27 14:47:26;;;;;;;8.07;7.27;;;2.20;80.90;;;;;;4957490;29;20469;-69
2023/01/27 14:50:07;;;;;;;9.83;8.93;;;2.30;80.90;;;;;;4957228;29;20906;-69
2023/01/27 14:52:44;;;;;;;8.53;7.77;;;2.20;80.80;;;;;;4957363;29;20474;-69
2023/01/27 14:55:22;;;;;;;9.50;8.60;;;2.10;80.90;;;;;;4957125;28;20490;-68
2023/01/27 14:57:58;;;;;;;9.20;8.10;;;2.10;81.50;;;;;;4957401;29;20440;-68
2023/01/27 15:00:38;;;;;;;10.03;8.80;;;2.10;81.00;;;;;;4957075;29;20435;-69
2023/01/27 15:03:24;;;;;;;10.07;8.30;;;2.10;81.30;;;;;;4956962;29;20429;-69
2023/01/27 15:05:57;;;;;;;8.30;6.73;;;2.10;81.20;;;;;;4957081;28;20466;-69
2023/01/27 15:08:32;;;;;;;8.40;7.57;;;2.20;81.00;;;;;;4957075;29;20430;-69
2023/01/27 15:11:19;;;;;;;9.13;8.00;;;2.30;81.00;;;;;;4957129;29;20530;-68
2023/01/27 15:13:58;;;;;;;11.17;8.93;;;2.20;80.60;;;;;;4957123;29;20434;-68
2023/01/27 15:16:44;;;;;;;8.93;7.97;;;2.20;80.80;;;;;;4957003;29;20427;-69
2023/01/27 15:19:31;;;;;;;11.23;10.00;;;2.20;80.80;;;;;;4956942;29;20502;-69
2023/01/27 15:22:29;;;;;;;10.17;9.17;;;2.30;80.70;;;;;;4956705;29;20801;-68
2023/01/27 15:25:04;;;;;;;10.53;9.40;;;2.20;80.70;;;;;;4956809;29;20471;-69
2023/01/27 15:27:33;;;;;;;9.23;8.40;;;2.20;81.00;;;;;;4956841;29;20489;-68
2023/01/27 15:30:05;;;;;;;10.40;9.30;;;2.10;81.40;;;;;;4956719;29;20483;-66
2023/01/27 15:32:36;;;;;;;8.97;8.07;;;2.20;81.40;;;;;;4956534;29;20478;-69
2023/01/27 15:35:37;;;;;;;8.43;7.53;;;2.20;81.20;;;;;;4957430;29;20474;-69
2023/01/27 15:38:20;;;;;;;9.50;8.50;;;2.10;81.00;;;;;;4957292;29;20451;-70
2023/01/27 15:40:59;;;;;;;9.03;7.67;;;2.00;81.40;;;;;;4956411;29;20481;-69
2023/01/27 15:43:29;;;;;;;8.70;7.77;;;2.10;81.60;;;;;;4956509;28;20450;-69
2023/01/27 15:45:57;;;;;;;8.60;7.80;;;2.10;81.30;;;;;;4957109;29;20449;-69
2023/01/27 15:48:28;;;;;;;9.50;8.47;;;2.10;81.30;;;;;;4956061;29;20957;-67
2023/01/27 15:51:00;;;;;;;9.43;8.47;;;2.10;81.10;;;;;;4956176;29;20471;-70
2023/01/27 15:53:30;;;;;;;7.70;6.90;;;2.10;81.10;;;;;;4956346;28;20431;-70
2023/01/27 15:56:00;;;;;;;7.77;6.97;;;2.10;81.00;;;;;;4956241;29;20515;-69
2023/01/27 15:58:33;;;;;;;8.20;7.40;;;2.10;81.00;;;;;;4955781;29;20462;-69
2023/01/27 16:01:02;;;;;;;8.20;7.40;;;2.10;81.10;;;;;;4955951;29;20872;-69
2023/01/27 16:03:33;;;;;;;9.10;8.10;;;2.20;80.80;;;;;;4956030;29;20434;-69
2023/01/27 16:06:07;;;;;;;7.63;6.80;;;2.30;80.60;;;;;;4954866;28;20489;-69
2023/01/27 16:08:41;;;;;;;8.27;7.57;;;2.20;80.80;;;;;;4955955;29;20600;-69
2023/01/27 16:11:40;;;;;;;7.47;6.77;;;2.10;80.60;;;;;;4955884;29;20474;-70
2023/01/27 16:14:41;;;;;;;6.87;6.30;;;2.00;80.60;;;;;;4956087;29;20478;-69
2023/01/27 16:17:26;;;;;;;7.20;6.43;;;2.20;80.70;;;;;;4977410;23;20503;-72
2023/01/27 16:20:04;;;;;;;8.33;7.57;;;2.20;80.30;;;;;;4955744;28;20434;-73
2023/01/27 16:22:33;;;;;;;9.97;8.20;;;2.20;80.40;;;;;;4955804;28;20427;-73
2023/01/27 16:25:12;;;;;;;9.07;8.10;;;2.20;80.10;;;;;;4955598;28;20447;-73
2023/01/27 16:27:45;;;;;;;6.60;5.90;;;2.30;80.40;;;;;;4955644;28;20488;-73
2023/01/27 16:30:17;;;;;;;9.20;7.10;;;2.20;80.00;;;;;;4955341;28;20442;-72
2023/01/27 16:32:58;;;;;;;6.10;5.50;;;2.20;80.10;;;;;;4955598;28;20470;-73
2023/01/27 16:35:25;;;;;;;8.60;6.77;;;2.20;79.80;;;;;;4955175;28;20849;-74
2023/01/27 16:38:05;;;;;;;8.33;7.33;;;2.10;80.00;;;;;;4955484;28;20479;-72
2023/01/27 16:40:35;;;;;;;8.13;7.33;;;2.00;80.50;;;;;;4955463;28;20870;-73
2023/01/27 16:43:06;;;;;;;7.43;6.63;;;2.00;81.00;;;;;;4956271;28;20461;-72
2023/01/27 16:45:42;;;;;;;9.37;8.50;;;2.00;81.10;;;;;;4955132;28;20444;-74
2023/01/27 16:48:20;;;;;;;6.93;5.77;;;1.90;80.70;;;;;;4955270;28;20477;-72
2023/01/27 16:50:47;;;;;;;8.17;7.17;;;1.70;81.40;;;;;;4955369;28;20438;-72
2023/01/27 16:53:16;;;;;;;7.67;6.97;;;1.70;81.30;;;;;;4955271;28;20451;-72
2023/01/27 16:55:56;;;;;;;7.30;6.60;;;1.50;81.60;;;;;;4954863;28;20977;-72
2023/01/27 16:58:24;;;;;;;7.13;6.43;;;1.40;82.30;;;;;;4955294;28;20474;-72
2023/01/27 17:00:51;;;;;;;6.97;6.37;;;1.40;82.50;;;;;;4955193;28;20455;-74
2023/01/27 17:03:24;;;;;;;6.67;6.07;;;1.40;82.50;;;;;;4955191;28;20457;-72
2023/01/27 17:05:52;;;;;;;7.87;7.17;;;1.40;82.70;;;;;;4954880;28;21039;-73
2023/01/27 17:08:22;;;;;;;6.97;6.27;;;1.50;82.70;;;;;;4955056;28;20491;-72
2023/01/27 17:10:54;;;;;;;8.50;7.20;;;1.60;82.40;;;;;;4955180;28;20431;-72
2023/01/27 17:13:31;;;;;;;9.87;8.90;;;1.60;82.00;;;;;;4955142;28;20506;-72
2023/01/27 17:16:00;;;;;;;8.50;6.60;;;1.60;82.50;;;;;;4954759;28;20992;-73
2023/01/27 17:18:28;;;;;;;6.57;5.90;;;1.70;82.30;;;;;;4957676;28;20459;-72
2023/01/27 17:20:56;;;;;;;6.63;6.00;;;1.70;82.00;;;;;;4959041;28;20836;-72
2023/01/27 17:23:32;;;;;;;7.87;7.17;;;1.50;82.20;;;;;;4958707;28;20498;-73